Time;durP1;ratioP1;P1;durP2;ratioP2;P2;SDS_P1;SDS_P2;PMS_P1;PMS_P2;Temp;Humidity;BMP_temperature;BMP_pressure;BME280_temperature;BME280_humidity;BME280_pressure;Samples;Min_cycle;Max_cycle;Signal;HPM_P1;HPM_P2
2022/02/16 00:00:30;;;;;;;34.88;18.33;;;11.30;91.80;;;;;;5112877;28;20030;-67
2022/02/16 00:02:56;;;;;;;39.60;19.85;;;11.30;91.60;;;;;;5115509;28;20023;-64
2022/02/16 00:05:22;;;;;;;49.78;26.10;;;11.20;91.40;;;;;;5116460;28;20096;-67
2022/02/16 00:07:48;;;;;;;47.38;22.70;;;11.20;91.80;;;;;;5116486;28;20024;-67
2022/02/16 00:10:16;;;;;;;49.30;25.88;;;11.10;91.80;;;;;;5116452;28;20422;-66
2022/02/16 00:12:43;;;;;;;48.38;23.80;;;11.10;92.30;;;;;;5098045;28;20131;-67
2022/02/16 00:15:12;;;;;;;49.88;25.83;;;11.20;92.70;;;;;;5116305;28;20058;-68
2022/02/16 00:17:38;;;;;;;51.58;25.60;;;11.10;92.40;;;;;;5098002;28;20088;-67
2022/02/16 00:20:08;;;;;;;42.25;21.27;;;11.10;92.70;;;;;;5097919;28;20027;-65
2022/02/16 00:22:34;;;;;;;42.00;22.20;;;11.10;92.10;;;;;;5115803;28;20065;-66
2022/02/16 00:25:00;;;;;;;34.10;17.88;;;11.10;92.80;;;;;;5116114;28;20039;-66
2022/02/16 00:27:25;;;;;;;31.38;15.77;;;11.10;92.90;;;;;;5115783;28;20476;-66
2022/02/16 00:29:51;;;;;;;32.08;16.38;;;11.10;93.00;;;;;;5097770;28;20028;-65
2022/02/16 00:32:17;;;;;;;28.17;15.13;;;11.10;92.70;;;;;;5115693;28;20459;-66
2022/02/16 00:34:43;;;;;;;36.40;17.73;;;11.00;92.90;;;;;;5097663;28;20035;-64
2022/02/16 00:37:09;;;;;;;34.53;17.83;;;10.90;93.60;;;;;;5115879;28;20468;-66
2022/02/16 00:39:35;;;;;;;41.45;20.30;;;10.80;94.40;;;;;;5097540;28;20023;-66
2022/02/16 00:42:01;;;;;;;48.20;24.48;;;;;;;;;;5097489;28;20028;-65
2022/02/16 00:44:49;;;;;;;58.60;28.83;;;;;;;;;;5097401;28;20454;-64
2022/02/16 00:47:18;;;;;;;39.30;21.30;;;;;;;;;;5115617;28;20019;-64
2022/02/16 00:49:44;;;;;;;26.48;12.57;;;;;;;;;;5115628;28;20055;-66
2022/02/16 00:52:10;;;;;;;25.88;11.35;;;;;;;;;;5115588;28;20035;-65
2022/02/16 00:54:38;;;;;;;20.38;9.68;;;;;;;;;;5115571;28;20027;-64
2022/02/16 00:57:04;;;;;;;13.77;8.07;;;;;;;;;;5115518;28;20536;-65
2022/02/16 00:59:31;;;;;;;16.45;7.53;;;;;;;;;;5115467;28;20054;-65
2022/02/16 01:01:57;;;;;;;18.23;8.65;;;;;;;;;;5115381;28;20026;-64
2022/02/16 01:04:24;;;;;;;14.70;8.50;;;;;;;;;;5115324;28;20114;-65
2022/02/16 01:06:53;;;;;;;18.90;10.18;;;;;;;;;;5115546;28;20095;-64
2022/02/16 01:09:20;;;;;;;18.88;10.43;;;;;;;;;;5115282;28;20015;-63
2022/02/16 01:11:46;;;;;;;21.52;10.82;;;;;;;;;;5115490;28;20031;-64
2022/02/16 01:14:12;;;;;;;21.05;12.20;;;;;;;;;;5113966;28;20092;-65
2022/02/16 01:16:39;;;;;;;22.65;12.07;;;;;;;;;;5115152;28;20103;-64
2022/02/16 01:19:07;;;;;;;24.83;13.20;;;;;;;;;;5115085;28;20047;-64
2022/02/16 01:21:33;;;;;;;22.00;13.25;;;;;;;;;;5096705;28;20028;-62
2022/02/16 01:23:59;;;;;;;27.95;15.88;;;;;;;;;;5115062;28;20537;-63
2022/02/16 01:26:25;;;;;;;25.55;14.93;;;;;;;;;;5096563;28;20411;-63
2022/02/16 01:28:51;;;;;;;24.10;14.27;;;;;;;;;;5114869;28;20024;-62
2022/02/16 01:31:18;;;;;;;26.45;15.73;;;;;;;;;;5114843;28;20039;-63
2022/02/16 01:33:44;;;;;;;26.63;15.32;;;;;;;;;;5114548;28;20172;-63
2022/02/16 01:36:11;;;;;;;26.25;15.77;;;;;;;;;;5115027;28;20111;-66
2022/02/16 01:38:37;;;;;;;26.05;16.45;;;;;;;;;;5114979;28;20032;-64
2022/02/16 01:41:04;;;;;;;28.85;16.80;;;;;;;;;;5114722;28;20034;-63
2022/02/16 01:43:30;;;;;;;29.40;16.02;;;;;;;;;;5096301;28;20122;-64
2022/02/16 01:45:56;;;;;;;22.10;15.40;;;;;;;;;;5096210;28;20486;-65
2022/02/16 01:48:23;;;;;;;23.52;14.40;;;;;;;;;;5096256;28;20027;-64
2022/02/16 01:50:49;;;;;;;26.40;16.30;;;;;;;;;;5114470;28;20031;-65
2022/02/16 01:53:16;;;;;;;24.55;15.00;;;;;;;;;;5114398;28;20110;-65
2022/02/16 01:55:42;;;;;;;23.60;14.55;;;;;;;;;;5114435;28;20027;-65
2022/02/16 01:58:09;;;;;;;25.88;14.35;;;;;;;;;;5096047;28;20024;-66
2022/02/16 02:00:35;;;;;;;24.50;14.35;;;;;;;;;;5114293;28;20081;-64
2022/02/16 02:03:01;;;;;;;23.92;14.15;;;;;;;;;;5114269;28;20059;-64
2022/02/16 02:05:28;;;;;;;29.45;14.80;;;;;;;;;;5114174;28;20031;-64
2022/02/16 02:07:54;;;;;;;23.55;13.60;;;;;;;;;;5095849;28;20126;-63
2022/02/16 02:10:20;;;;;;;26.20;13.65;;;;;;;;;;5114120;28;20023;-67
2022/02/16 02:12:47;;;;;;;23.90;13.77;;;;;;;;;;5114112;28;20464;-63
2022/02/16 02:15:13;;;;;;;21.58;14.27;;;;;;;;;;5113605;28;20047;-64
2022/02/16 02:17:40;;;;;;;23.98;13.95;;;;;;;;;;5114014;28;20031;-65
2022/02/16 02:20:27;;;;;;;19.45;13.82;;;;;;;;;;5113659;28;20387;-66
2022/02/16 02:22:54;;;;;;;22.85;14.30;;;;;;;;;;5113847;28;20076;-64
2022/02/16 02:25:21;;;;;;;19.85;13.35;;;;;;;;;;5113691;28;20032;-64
2022/02/16 02:27:47;;;;;;;25.77;15.25;;;;;;;;;;5113909;28;20100;-65
2022/02/16 02:30:13;;;;;;;22.77;14.40;;;;;;;;;;5113776;28;20193;-65
2022/02/16 02:32:41;;;;;;;22.55;14.25;;;;;;;;;;5113760;28;20027;-64
2022/02/16 02:35:08;;;;;;;25.80;15.05;;;;;;;;;;5113747;28;20039;-66
2022/02/16 02:37:38;;;;;;;22.30;13.25;;;;;;;;;;5095377;28;20115;-64
2022/02/16 02:40:04;;;;;;;24.02;15.38;;;;;;;;;;5113649;28;20375;-65
2022/02/16 02:42:30;;;;;;;22.58;14.20;;;;;;;;;;5113636;28;20023;-65
2022/02/16 02:44:57;;;;;;;24.20;15.35;;;;;;;;;;5113569;28;20032;-64
2022/02/16 02:47:23;;;;;;;22.25;14.43;;;;;;;;;;5113537;28;20062;-65
2022/02/16 02:49:52;;;;;;;25.30;14.30;;;;;;;;;;5113573;28;20168;-63
2022/02/16 02:52:19;;;;;;;25.10;15.27;;;;;;;;;;5113613;28;20153;-64
2022/02/16 02:54:45;;;;;;;26.50;15.07;;;;;;;;;;5113525;28;20059;-64
2022/02/16 02:57:11;;;;;;;23.83;13.63;;;;;;;;;;5113202;28;20440;-64
2022/02/16 02:59:37;;;;;;;22.38;13.43;;;;;;;;;;5113432;28;20165;-64
2022/02/16 03:02:03;;;;;;;20.60;12.95;;;;;;;;;;5113393;28;20024;-64
2022/02/16 03:04:30;;;;;;;20.60;11.80;;;;;;;;;;5113344;28;20032;-64
2022/02/16 03:06:56;;;;;;;22.33;11.15;;;;;;;;;;5113365;28;20080;-64
2022/02/16 03:09:22;;;;;;;20.45;12.00;;;;;;;;;;5113334;28;20023;-64
2022/02/16 03:11:48;;;;;;;15.50;10.73;;;;;;;;;;5113335;28;20024;-65
2022/02/16 03:14:14;;;;;;;17.35;11.85;;;;;;;;;;5113132;28;20361;-65
2022/02/16 03:16:41;;;;;;;18.15;11.63;;;;;;;;;;5094968;28;20119;-66
2022/02/16 03:19:07;;;;;;;18.42;13.00;;;;;;;;;;5113257;28;20072;-65
2022/02/16 03:21:33;;;;;;;20.33;12.57;;;;;;;;;;5094949;28;20461;-65
2022/02/16 03:23:59;;;;;;;18.58;13.02;;;;;;;;;;5113205;28;20024;-65
2022/02/16 03:26:25;;;;;;;22.20;14.35;;;;;;;;;;5113147;28;20104;-65
2022/02/16 03:28:51;;;;;;;24.25;14.02;;;;;;;;;;5113241;28;20107;-65
2022/02/16 03:31:18;;;;;;;22.13;14.23;;;;;;;;;;5112904;28;20460;-65
2022/02/16 03:33:45;;;;;;;22.58;14.35;;;;;;;;;;5113071;28;20102;-64
2022/02/16 03:36:13;;;;;;;23.55;15.20;;;;;;;;;;5113237;28;20513;-63
2022/02/16 03:38:39;;;;;;;21.60;14.82;;;;;;;;;;5117089;28;20533;-63
2022/02/16 03:41:06;;;;;;;24.60;13.52;;;;;;;;;;5117038;28;20047;-63
2022/02/16 03:43:32;;;;;;;23.65;14.32;;;;;;;;;;5117024;28;20111;-65
2022/02/16 03:45:58;;;;;;;25.60;14.23;;;;;;;;;;5116881;28;20097;-63
2022/02/16 03:48:25;;;;;;;23.00;15.63;;;;;;;;;;5116866;28;20067;-63
2022/02/16 03:50:51;;;;;;;24.85;15.23;;;;;;;;;;5098534;28;20069;-63
2022/02/16 03:53:19;;;;;;;22.70;14.10;;;;;;;;;;5098480;28;20028;-63
2022/02/16 03:55:45;;;;;;;19.70;14.48;;;;;;;;;;5116842;28;20027;-63
2022/02/16 03:58:11;;;;;;;22.52;14.10;;;;;;;;;;5116945;28;20020;-64
2022/02/16 04:00:38;;;;;;;20.02;12.95;;;;;;;;;;5116670;28;20024;-63
2022/02/16 04:03:07;;;;;;;23.65;14.05;;;;;;;;;;5116863;28;20063;-63
2022/02/16 04:05:34;;;;;;;21.10;13.32;;;;;;;;;;5116540;28;20031;-65
2022/02/16 04:08:00;;;;;;;20.65;13.00;;;;;;;;;;5097934;28;20169;-64
2022/02/16 04:10:26;;;;;;;22.13;12.98;;;;;;;;;;5116191;28;20023;-64
2022/02/16 04:12:52;;;;;;;22.23;13.98;;;;;;;;;;5116423;28;20027;-65
2022/02/16 04:15:18;;;;;;;16.83;11.80;;;;;;;;;;5116262;28;20051;-66
2022/02/16 04:17:45;;;;;;;20.90;12.90;;;;;;;;;;5115991;28;20447;-65
2022/02/16 04:20:11;;;;;;;21.23;13.23;;;;;;;;;;5097933;28;20114;-64
2022/02/16 04:22:44;;;;;;;22.55;13.93;;;;;;;;;;5116499;28;20024;-64
2022/02/16 04:25:11;;;;;;;27.00;15.57;;;;;;;;;;5097820;28;20031;-66
2022/02/16 04:27:37;;;;;;;45.50;23.75;;;;;;;;;;5116143;28;20077;-68
2022/02/16 04:30:04;;;;;;;33.38;19.73;;;;;;;;;;5097728;28;20030;-63
2022/02/16 04:32:30;;;;;;;24.50;14.85;;;;;;;;;;5116053;28;20073;-65
2022/02/16 04:34:56;;;;;;;21.98;14.82;;;;;;;;;;5097673;28;20490;-66
2022/02/16 04:37:22;;;;;;;26.35;16.23;;;;;;;;;;5115930;28;20173;-65
2022/02/16 04:39:49;;;;;;;33.17;16.92;;;;;;;;;;5115606;28;20024;-63
2022/02/16 04:42:15;;;;;;;31.77;17.92;;;;;;;;;;5115808;28;20372;-63
2022/02/16 04:44:42;;;;;;;32.40;17.95;;;;;;;;;;5115645;28;20023;-63
2022/02/16 04:47:08;;;;;;;32.80;19.35;;;;;;;;;;5115755;28;20106;-66
2022/02/16 04:49:35;;;;;;;31.70;20.15;;;;;;;;;;5115670;28;20030;-65
2022/02/16 04:52:01;;;;;;;44.20;22.33;;;;;;;;;;5115920;28;20038;-65
2022/02/16 04:54:27;;;;;;;30.33;19.58;;;;;;;;;;5115601;28;20024;-65
2022/02/16 04:56:53;;;;;;;37.42;23.05;;;;;;;;;;5115366;28;20027;-65
2022/02/16 04:59:20;;;;;;;35.92;22.27;;;;;;;;;;5115522;28;20028;-62
2022/02/16 05:01:46;;;;;;;32.80;20.33;;;;;;;;;;5115471;28;20464;-64
2022/02/16 05:04:12;;;;;;;30.60;19.42;;;;;;;;;;5097152;28;20030;-64
2022/02/16 05:06:41;;;;;;;30.40;19.40;;;;;;;;;;5115025;28;20268;-64
2022/02/16 05:09:08;;;;;;;29.58;19.48;;;;;;;;;;5115335;28;20460;-64
2022/02/16 05:11:34;;;;;;;30.02;19.90;;;;;;;;;;5115297;28;20376;-64
2022/02/16 05:14:01;;;;;;;34.03;18.65;;;;;;;;;;5112850;28;20138;-64
2022/02/16 05:16:27;;;;;;;41.75;24.35;;;;;;;;;;5096813;28;20384;-65
2022/02/16 05:18:55;;;;;;;27.35;17.52;;;;;;;;;;5096821;28;20450;-64
2022/02/16 05:21:22;;;;;;;28.20;18.95;;;;;;;;;;5096773;28;20023;-64
2022/02/16 05:23:48;;;;;;;33.40;20.25;;;;;;;;;;5115063;28;20020;-66
2022/02/16 05:26:14;;;;;;;32.15;20.23;;;;;;;;;;5096617;28;20031;-65
2022/02/16 05:28:41;;;;;;;33.38;20.75;;;;;;;;;;5096595;28;20039;-63
2022/02/16 05:31:07;;;;;;;33.30;20.42;;;;;;;;;;5114905;28;20056;-64
2022/02/16 05:33:33;;;;;;;28.95;18.55;;;;;;;;;;5114811;28;20460;-63
2022/02/16 05:35:59;;;;;;;31.92;19.55;;;;;;;;;;5114617;28;20110;-63
2022/02/16 05:38:25;;;;;;;31.73;19.25;;;;;;;;;;5114778;28;20020;-63
2022/02/16 05:40:51;;;;;;;27.00;17.92;;;;;;;;;;5114663;28;20115;-66
2022/02/16 05:43:19;;;;;;;29.30;18.85;;;;;;;;;;5114594;28;20028;-63
2022/02/16 05:45:45;;;;;;;27.42;17.80;;;;;;;;;;5114589;28;20088;-63
2022/02/16 05:48:12;;;;;;;25.30;17.02;;;;;;;;;;5096242;28;20511;-62
2022/02/16 05:50:38;;;;;;;28.92;17.15;;;;;;;;;;5114541;28;20414;-63
2022/02/16 05:53:04;;;;;;;26.27;17.90;;;;;;;;;;5114464;28;20063;-63
2022/02/16 05:55:30;;;;;;;30.48;19.55;;;;;;;;;;5114357;28;20028;-63
2022/02/16 05:57:57;;;;;;;30.70;18.85;;;;;;;;;;5114333;28;20030;-63
2022/02/16 06:00:23;;;;;;;27.55;17.40;;;;;;;;;;5114095;28;20028;-64
2022/02/16 06:02:49;;;;;;;26.33;19.00;;;;;;;;;;5096025;28;20024;-65
2022/02/16 06:05:16;;;;;;;32.92;19.52;;;;;;;;;;5114104;28;20160;-63
2022/02/16 06:07:42;;;;;;;35.50;22.63;;;;;;;;;;5095921;28;20036;-63
2022/02/16 06:10:08;;;;;;;37.67;25.90;;;;;;;;;;5095837;28;20114;-64
2022/02/16 06:12:38;;;;;;;40.38;25.40;;;;;;;;;;5114106;28;20106;-65
2022/02/16 06:15:05;;;;;;;40.40;26.05;;;;;;;;;;5114092;28;20058;-65
2022/02/16 06:17:31;;;;;;;42.20;24.63;;;;;;;;;;5113698;28;20418;-64
2022/02/16 06:19:57;;;;;;;44.50;21.95;;;;;;;;;;5095688;28;20114;-64
2022/02/16 06:22:23;;;;;;;33.03;20.02;;;;;;;;;;5095630;28;20027;-63
2022/02/16 06:24:49;;;;;;;36.55;22.00;;;;;;;;;;5113848;28;20027;-65
2022/02/16 06:27:16;;;;;;;39.40;22.30;;;;;;;;;;5113870;28;20517;-65
2022/02/16 06:29:42;;;;;;;38.50;23.50;;;;;;;;;;5114052;28;20413;-64
2022/02/16 06:32:08;;;;;;;34.42;24.33;;;;;;;;;;5113987;28;20038;-64
2022/02/16 06:34:34;;;;;;;42.22;24.85;;;;;;;;;;5113691;28;20028;-65
2022/02/16 06:37:01;;;;;;;39.65;26.33;;;;;;;;;;5113719;28;20058;-64
2022/02/16 06:39:27;;;;;;;41.65;23.73;;;;;;;;;;5113305;28;20368;-64
2022/02/16 06:41:53;;;;;;;38.55;24.98;;;;;;;;;;5113532;28;20028;-63
2022/02/16 06:44:19;;;;;;;38.97;26.02;;;;;;;;;;5113530;28;20024;-65
2022/02/16 06:46:47;;;;;;;34.88;22.77;;;;;;;;;;5113440;28;20114;-64
2022/02/16 06:49:13;;;;;;;45.47;28.05;;;;;;;;;;5113323;28;20468;-64
2022/02/16 06:51:39;;;;;;;45.90;28.35;;;;;;;;;;5113544;28;20157;-68
2022/02/16 06:54:05;;;;;;;42.97;27.27;;;;;;;;;;5113479;28;20063;-65
2022/02/16 06:56:32;;;;;;;45.00;29.08;;;;;;;;;;5113432;28;20040;-65
2022/02/16 06:58:58;;;;;;;49.55;31.15;;;;;;;;;;5113352;28;20031;-65
2022/02/16 07:01:24;;;;;;;54.25;33.80;;;;;;;;;;5113017;28;20476;-66
2022/02/16 07:03:50;;;;;;;57.67;36.03;;;;;;;;;;5113326;28;20015;-66
2022/02/16 07:06:16;;;;;;;63.72;41.97;;;;;;;;;;5113291;28;20032;-66
2022/02/16 07:08:42;;;;;;;61.92;38.20;;;;;;;;;;5113338;28;20106;-65
2022/02/16 07:11:09;;;;;;;69.05;44.38;;;;;;;;;;5113621;28;20471;-66
2022/02/16 07:13:35;;;;;;;72.13;45.53;;;;;;;;;;5117470;28;20056;-65
2022/02/16 07:16:01;;;;;;;72.68;44.95;;;;;;;;;;5117582;28;20072;-65
2022/02/16 07:18:29;;;;;;;67.43;40.78;;;;;;;;;;5117456;28;20028;-67
2022/02/16 07:20:55;;;;;;;62.90;40.88;;;;;;;;;;5099001;28;20084;-65
2022/02/16 07:23:22;;;;;;;76.20;48.08;;;;;;;;;;5117322;28;20028;-64
2022/02/16 07:25:48;;;;;;;58.53;39.30;;;;;;;;;;5117203;28;20023;-64
2022/02/16 07:28:14;;;;;;;44.92;29.08;;;;;;;;;;5117591;28;20444;-64
2022/02/16 07:30:45;;;;;;;42.88;27.77;;;;;;;;;;5116909;28;20111;-66
2022/02/16 07:33:11;;;;;;;41.13;28.23;;;;;;;;;;5117233;28;20073;-63
2022/02/16 07:35:38;;;;;;;37.83;25.23;;;;;;;;;;5116836;28;20468;-64
2022/02/16 07:38:04;;;;;;;31.67;22.23;;;;;;;;;;5098815;28;20063;-64
2022/02/16 07:40:30;;;;;;;95.85;56.35;;;;;;;;;;5098724;28;20036;-63
2022/02/16 07:42:56;;;;;;;27.58;21.42;;;;;;;;;;5116921;28;20439;-63
2022/02/16 07:45:22;;;;;;;49.22;32.33;;;;;;;;;;5116781;28;20097;-62
2022/02/16 07:47:49;;;;;;;36.08;25.23;;;;;;;;;;5116844;28;20107;-62
2022/02/16 07:50:15;;;;;;;32.33;25.58;;;;;;;;;;5115821;28;20044;-64
2022/02/16 07:52:41;;;;;;;39.67;27.45;;;;;;;;;;5116811;28;20035;-63
2022/02/16 07:55:07;;;;;;;37.55;25.27;;;;;;;;;;5098359;28;20552;-63
2022/02/16 07:57:34;;;;;;;39.45;25.38;;;;;;;;;;5116734;28;20035;-64
2022/02/16 08:00:00;;;;;;;34.72;25.08;;;;;;;;;;5116257;28;20115;-63
2022/02/16 08:02:26;;;;;;;30.67;22.48;;;;;;;;;;5116379;28;20020;-63
2022/02/16 08:04:52;;;;;;;30.85;21.23;;;;;;;;;;5112912;28;20031;-63
2022/02/16 08:07:19;;;;;;;29.15;20.02;;;;;;;;;;5095863;28;20112;-64
2022/02/16 08:09:45;;;;;;;30.08;21.88;;;;;;;;;;5095964;28;20023;-63
2022/02/16 08:12:12;;;;;;;29.17;20.90;;;;;;;;;;5087979;28;20461;-64
2022/02/16 08:14:38;;;;;;;33.33;22.98;;;;;;;;;;5092718;28;20579;-64
2022/02/16 08:17:05;;;;;;;28.17;21.25;;;;;;;;;;5115408;28;20036;-63
2022/02/16 08:19:31;;;;;;;31.23;23.35;;;;;;;;;;5081730;28;20016;-66
2022/02/16 08:21:58;;;;;;;35.58;25.25;;;;;;;;;;5076201;28;20127;-65
2022/02/16 08:24:27;;;;;;;111.30;73.68;;;;;;;;;;5094462;28;20105;-65
2022/02/16 08:26:54;;;;;;;47.33;29.15;;;;;;;;;;5076111;28;20032;-65
2022/02/16 08:29:24;;;;;;;44.75;28.92;;;;;;;;;;5094448;28;20028;-64
2022/02/16 08:31:50;;;;;;;39.53;28.98;;;;;;;;;;5094344;28;20024;-66
2022/02/16 08:34:16;;;;;;;96.32;53.03;;;;;;;;;;5094358;28;20024;-65
2022/02/16 08:36:43;;;;;;;46.65;29.77;;;;;;;;;;5094125;28;20036;-69
2022/02/16 08:39:09;;;;;;;67.95;46.88;;;;;;;;;;5094208;28;20032;-67
2022/02/16 08:41:35;;;;;;;66.78;42.33;;;;;;;;;;5094200;28;20457;-68
2022/02/16 08:44:01;;;;;;;47.60;33.97;;;;;;;;;;5075941;28;20051;-65
2022/02/16 08:46:27;;;;;;;57.97;36.95;;;;;;;;;;5094065;28;20034;-65
2022/02/16 08:48:54;;;;;;;57.60;36.45;;;;;;;;;;5094035;28;20043;-64
2022/02/16 08:51:20;;;;;;;50.67;33.70;;;;;;;;;;5075874;28;20072;-66
2022/02/16 08:53:47;;;;;;;49.28;32.50;;;;;;;;;;5075861;28;20023;-66
2022/02/16 08:56:13;;;;;;;37.00;26.48;;;;;;;;;;5093909;28;20055;-66
2022/02/16 08:58:39;;;;;;;29.88;20.55;;;;;;;;;;5075011;28;20035;-65
2022/02/16 09:01:05;;;;;;;31.90;19.52;;;;;;;;;;5093394;28;20039;-65
2022/02/16 09:03:32;;;;;;;33.83;21.17;;;;;;;;;;5093841;28;20099;-67
2022/02/16 09:05:59;;;;;;;36.70;23.92;;;;;;;;;;5075586;28;20067;-65
2022/02/16 09:08:25;;;;;;;48.63;32.97;;;;;;;;;;5093722;28;20047;-66
2022/02/16 09:10:51;;;;;;;26.15;18.08;;;;;;;;;;5093709;28;20043;-65
2022/02/16 09:13:17;;;;;;;35.63;24.42;;;;;;;;;;5045084;28;1368324;-66
2022/02/16 09:15:44;;;;;;;56.35;39.97;;;;;;;;;;5094640;28;20028;-68
2022/02/16 09:18:10;;;;;;;39.88;29.10;;;;;;;;;;5076455;28;20031;-67
2022/02/16 09:20:36;;;;;;;30.50;21.02;;;;;;;;;;5076260;28;20472;-67
2022/02/16 09:23:02;;;;;;;38.25;26.65;;;;;;;;;;5094804;28;20028;-64
2022/02/16 09:25:30;;;;;;;38.33;26.35;;;;;;;;;;5094402;28;20024;-66
2022/02/16 09:27:56;;;;;;;23.75;15.65;;;;;;;;;;5075850;28;20031;-66
2022/02/16 09:30:22;;;;;;;25.48;15.60;;;;;;;;;;5076175;28;20116;-66
2022/02/16 09:32:49;;;;;;;32.10;22.95;;;;;;;;;;5094292;28;20024;-67
2022/02/16 09:35:15;;;;;;;34.33;20.17;;;;;;;;;;5075195;28;20028;-66
2022/02/16 09:37:42;;;;;;;25.67;16.55;;;;;;;;;;5094163;28;20106;-66
2022/02/16 09:40:08;;;;;;;19.30;14.52;;;;;;;;;;5076018;28;20027;-66
2022/02/16 09:42:35;;;;;;;20.15;13.52;;;;;;;;;;5075950;28;20059;-66
2022/02/16 09:45:02;;;;;;;14.82;10.68;;;;;;;;;;5094135;28;20066;-66
2022/02/16 09:47:33;;;;;;;17.55;9.95;;;;;;;;;;5075698;28;20036;-67
2022/02/16 09:50:00;;;;;;;16.15;10.80;;;;;;;;;;5094074;28;20048;-66
2022/02/16 09:52:27;;;;;;;18.55;11.15;;;12.00;99.90;;;;;;5094021;28;20020;-68
2022/02/16 09:54:53;;;;;;;20.48;11.05;;;12.00;99.90;;;;;;5093768;28;20496;-68
2022/02/16 09:57:20;;;;;;;14.82;10.55;;;;;;;;;;5093961;28;20020;-67
2022/02/16 09:59:46;;;;;;;19.77;12.15;;;12.20;99.90;;;;;;5093899;28;20055;-67
2022/02/16 10:02:15;;;;;;;16.08;11.73;;;12.20;99.90;;;;;;5093914;28;20047;-68
2022/02/16 10:04:54;;;;;;;16.17;11.57;;;12.20;99.90;;;;;;5093867;28;20118;-66
2022/02/16 10:07:30;;;;;;;16.58;10.70;;;12.20;99.90;;;;;;5093853;28;20094;-67
2022/02/16 10:10:20;;;;;;;11.32;8.77;;;12.20;99.90;;;;;;5075535;28;20361;-67
2022/02/16 10:12:50;;;;;;;12.50;9.38;;;12.30;99.90;;;;;;5075430;28;20483;-66
2022/02/16 10:15:19;;;;;;;21.88;13.68;;;12.40;99.90;;;;;;5093182;28;20084;-67
2022/02/16 10:17:45;;;;;;;24.88;14.10;;;12.40;99.90;;;;;;5093695;28;20036;-67
2022/02/16 10:20:16;;;;;;;28.52;17.77;;;12.50;99.90;;;;;;5093630;28;20032;-67
2022/02/16 10:22:53;;;;;;;25.73;16.08;;;;;;;;;;5093646;28;20031;-67
2022/02/16 10:25:29;;;;;;;32.00;19.92;;;;;;;;;;5093502;28;20399;-66
2022/02/16 10:28:14;;;;;;;71.15;41.75;;;;;;;;;;5093135;28;20434;-66
2022/02/16 10:31:04;;;;;;;25.70;18.27;;;12.50;99.90;;;;;;5075202;28;20384;-67
2022/02/16 10:33:42;;;;;;;19.30;12.55;;;13.40;99.90;;;;;;5093406;28;20020;-66
2022/02/16 10:36:14;;;;;;;16.13;10.85;;;13.20;99.90;;;;;;5093157;28;20480;-67
2022/02/16 10:39:00;;;;;;;11.25;8.00;;;13.30;99.90;;;;;;5075000;28;20449;-68
2022/02/16 10:41:30;;;;;;;13.68;7.97;;;13.40;99.90;;;;;;5093156;28;20118;-66
2022/02/16 10:43:56;;;;;;;10.55;7.50;;;;;;;;;;5093346;28;20051;-66
2022/02/16 10:46:26;;;;;;;12.38;8.98;;;13.70;99.90;;;;;;5092968;28;20039;-67
2022/02/16 10:49:11;;;;;;;14.63;12.45;;;;;;;;;;5093091;28;20040;-67
2022/02/16 10:51:38;;;;;;;13.48;9.65;;;;;;;;;;5092885;28;20063;-66
2022/02/16 10:54:14;;;;;;;14.48;10.05;;;14.40;99.90;;;;;;5093035;28;20554;-66
2022/02/16 10:56:41;;;;;;;14.27;9.25;;;14.00;99.90;;;;;;5092859;28;20431;-66
2022/02/16 10:59:07;;;;;;;7.20;6.00;;;;;;;;;;5093068;28;20381;-66
2022/02/16 11:01:38;;;;;;;10.10;7.30;;;13.90;99.90;;;;;;5092905;28;20353;-67
2022/02/16 11:04:06;;;;;;;9.13;7.25;;;14.30;99.90;;;;;;5093385;28;20078;-70
2022/02/16 11:06:37;;;;;;;10.07;7.57;;;14.20;99.90;;;;;;5097015;28;20047;-68
2022/02/16 11:09:04;;;;;;;8.20;5.60;;;14.40;99.90;;;;;;5092734;28;20060;-66
2022/02/16 11:11:31;;;;;;;4.90;4.20;;;;;;;;;;5093110;28;20032;-67
2022/02/16 11:13:58;;;;;;;7.03;4.35;;;14.50;99.90;;;;;;5092837;28;20048;-66
2022/02/16 11:16:25;;;;;;;8.13;5.75;;;13.80;99.90;;;;;;5092668;28;20032;-67
2022/02/16 11:18:59;;;;;;;9.60;7.15;;;13.60;99.90;;;;;;5092821;28;20032;-67
2022/02/16 11:21:28;;;;;;;9.93;6.95;;;13.40;99.90;;;;;;5092518;28;20460;-66
2022/02/16 11:23:57;;;;;;;8.15;6.07;;;13.30;99.90;;;;;;5092410;28;20570;-67
2022/02/16 11:26:38;;;;;;;9.50;7.20;;;13.20;99.90;;;;;;5092717;28;20419;-68
2022/02/16 11:29:26;;;;;;;7.88;7.07;;;13.10;99.90;;;;;;5074604;28;20534;-67
2022/02/16 11:32:01;;;;;;;12.02;8.05;;;13.20;99.90;;;;;;5074550;28;20028;-69
2022/02/16 11:34:28;;;;;;;11.00;8.48;;;13.30;99.90;;;;;;5074525;28;20024;-68
2022/02/16 11:36:59;;;;;;;9.73;6.95;;;13.50;99.90;;;;;;5092403;28;20365;-66
2022/02/16 11:39:52;;;;;;;13.48;7.65;;;13.50;99.90;;;;;;5092649;28;20089;-66
2022/02/16 11:42:47;;;;;;;9.68;6.07;;;13.60;99.90;;;;;;5080102;28;20078;-66
2022/02/16 11:45:15;;;;;;;7.80;6.75;;;13.70;99.90;;;;;;5074132;28;20063;-67
2022/02/16 11:47:40;;;;;;;12.00;7.45;;;13.90;99.90;;;;;;5074107;28;20028;-66
2022/02/16 11:50:12;;;;;;;11.80;8.85;;;14.00;99.90;;;;;;5074327;28;20076;-66
2022/02/16 11:52:43;;;;;;;11.05;8.90;;;13.70;99.90;;;;;;5092408;28;20028;-68
2022/02/16 11:55:25;;;;;;;12.65;8.63;;;13.80;99.90;;;;;;5090987;28;20653;-66
2022/02/16 11:57:57;;;;;;;11.50;9.30;;;13.90;99.90;;;;;;5075262;28;20024;-66
2022/02/16 12:00:26;;;;;;;11.77;9.30;;;13.90;99.90;;;;;;5095958;28;20031;-67
2022/02/16 12:03:01;;;;;;;10.07;7.85;;;;;;;;;;5096038;28;20082;-68
2022/02/16 12:05:51;;;;;;;15.10;10.23;;;14.00;99.90;;;;;;5094971;28;20030;-67
2022/02/16 12:08:22;;;;;;;11.88;7.75;;;15.90;96.70;;;;;;5077029;28;20077;-67
2022/02/16 12:10:48;;;;;;;7.70;6.80;;;;;;;;;;5077906;28;20039;-67
2022/02/16 12:13:15;;;;;;;12.45;8.73;;;15.20;96.20;;;;;;5096009;28;20044;-69
2022/02/16 12:15:41;;;;;;;14.85;8.68;;;14.80;97.00;;;;;;5096008;28;20067;-67
2022/02/16 12:18:13;;;;;;;12.70;8.23;;;14.50;98.00;;;;;;5076927;28;20468;-68
2022/02/16 12:20:40;;;;;;;13.00;9.98;;;14.40;97.80;;;;;;5094564;28;20024;-67
2022/02/16 12:23:12;;;;;;;14.88;9.30;;;14.20;98.50;;;;;;5076914;28;20020;-69
2022/02/16 12:25:38;;;;;;;12.25;8.50;;;14.30;99.10;;;;;;5095491;28;20028;-68
2022/02/16 12:28:05;;;;;;;9.32;7.00;;;14.30;99.10;;;;;;5077679;28;20054;-68
2022/02/16 12:30:41;;;;;;;9.63;7.47;;;14.10;98.50;;;;;;5077488;28;20021;-68
2022/02/16 12:33:21;;;;;;;9.52;6.78;;;;;;;;;;5077501;28;20404;-65
2022/02/16 12:35:48;;;;;;;11.77;7.00;;;14.10;98.80;;;;;;5095515;28;20054;-68
2022/02/16 12:38:24;;;;;;;9.93;7.95;;;15.30;97.00;;;;;;5095432;28;20085;-68
2022/02/16 12:40:51;;;;;;;10.90;7.97;;;14.80;95.30;;;;;;5095398;28;20404;-67
2022/02/16 12:43:17;;;;;;;9.40;6.80;;;14.60;97.50;;;;;;5095135;28;20032;-68
2022/02/16 12:45:53;;;;;;;6.93;6.28;;;14.90;96.80;;;;;;5095249;28;20467;-66
2022/02/16 12:48:19;;;;;;;8.85;6.07;;;14.90;96.90;;;;;;5095230;28;20062;-66
2022/02/16 12:50:45;;;;;;;8.80;6.95;;;14.70;95.80;;;;;;5095183;28;20384;-65
2022/02/16 12:53:13;;;;;;;9.25;6.43;;;14.50;96.60;;;;;;5076972;28;20453;-64
2022/02/16 12:55:47;;;;;;;6.60;5.88;;;14.40;96.20;;;;;;5076787;28;20039;-68
2022/02/16 12:58:15;;;;;;;7.78;5.75;;;14.50;95.60;;;;;;5095156;28;20020;-64
2022/02/16 13:00:47;;;;;;;13.68;5.35;;;14.50;94.60;;;;;;5094820;28;20385;-65
2022/02/16 13:03:16;;;;;;;5.38;4.28;;;14.50;94.90;;;;;;5094994;28;20460;-67
2022/02/16 13:05:48;;;;;;;5.25;4.00;;;14.90;92.90;;;;;;5094839;28;20040;-66
2022/02/16 13:08:14;;;;;;;5.38;4.47;;;15.10;91.70;;;;;;5094924;28;20077;-66
2022/02/16 13:10:42;;;;;;;6.95;5.28;;;15.20;93.10;;;;;;5102985;28;20031;-66
2022/02/16 13:13:19;;;;;;;8.65;6.65;;;;;;;;;;5115154;28;20019;-66
2022/02/16 13:15:45;;;;;;;9.88;6.97;;;15.40;93.80;;;;;;5115147;28;20490;-66
2022/02/16 13:18:16;;;;;;;8.10;6.07;;;17.00;90.60;;;;;;5084195;28;20058;-66
2022/02/16 13:20:44;;;;;;;9.40;6.10;;;16.80;90.00;;;;;;5093145;28;20028;-67
2022/02/16 13:23:20;;;;;;;12.00;8.73;;;;;;;;;;5092826;28;20111;-66
2022/02/16 13:25:53;;;;;;;6.63;5.53;;;17.70;87.60;;;;;;5094538;28;20028;-66
2022/02/16 13:28:28;;;;;;;6.22;5.35;;;19.60;77.50;;;;;;5094493;28;20031;-65
2022/02/16 13:30:56;;;;;;;8.77;6.43;;;;;;;;;;5094376;28;20024;-66
2022/02/16 13:33:28;;;;;;;9.60;6.00;;;19.80;76.70;;;;;;5094091;28;20816;-66
2022/02/16 13:36:00;;;;;;;8.48;6.15;;;;;;;;;;5094270;28;20515;-65
2022/02/16 13:38:34;;;;;;;9.93;6.82;;;19.90;74.80;;;;;;5094234;28;20048;-65
2022/02/16 13:41:03;;;;;;;8.50;6.93;;;;;;;;;;5098025;28;20024;-64
2022/02/16 13:43:44;;;;;;;10.30;6.35;;;;;;;;;;5084003;28;20054;-65
2022/02/16 13:46:10;;;;;;;7.93;5.95;;;19.60;76.70;;;;;;5102620;28;20491;-64
2022/02/16 13:48:36;;;;;;;8.25;5.50;;;18.60;78.80;;;;;;5093646;28;20533;-66
2022/02/16 13:51:13;;;;;;;8.52;6.85;;;18.50;78.30;;;;;;5086287;28;20124;-65